sensor_id;sensor_type;location;lat;lon;timestamp;P1;durP1;ratioP1;P2;durP2;ratioP2
24401;SDS011;12539;48.808;11.292;2023-02-02T00:01:24;9.82;;;2.25;;
24401;SDS011;12539;48.808;11.292;2023-02-02T00:03:50;12.57;;;3.17;;
24401;SDS011;12539;48.808;11.292;2023-02-02T00:06:17;12.13;;;2.20;;
24401;SDS011;12539;48.808;11.292;2023-02-02T00:08:47;13.38;;;2.28;;
24401;SDS011;12539;48.808;11.292;2023-02-02T00:11:13;6.93;;;1.95;;
24401;SDS011;12539;48.808;11.292;2023-02-02T00:13:39;12.43;;;2.60;;
24401;SDS011;12539;48.808;11.292;2023-02-02T00:18:53;6.22;;;2.70;;
24401;SDS011;12539;48.808;11.292;2023-02-02T00:21:24;10.48;;;2.47;;
24401;SDS011;12539;48.808;11.292;2023-02-02T00:23:50;7.93;;;2.15;;
24401;SDS011;12539;48.808;11.292;2023-02-02T00:26:16;9.60;;;2.67;;
24401;SDS011;12539;48.808;11.292;2023-02-02T00:28:42;9.57;;;2.25;;
24401;SDS011;12539;48.808;11.292;2023-02-02T00:31:08;10.32;;;2.40;;
24401;SDS011;12539;48.808;11.292;2023-02-02T00:33:34;10.80;;;2.53;;
24401;SDS011;12539;48.808;11.292;2023-02-02T00:35:59;9.27;;;2.30;;
24401;SDS011;12539;48.808;11.292;2023-02-02T00:38:25;11.27;;;2.35;;
24401;SDS011;12539;48.808;11.292;2023-02-02T00:40:51;14.82;;;2.10;;
24401;SDS011;12539;48.808;11.292;2023-02-02T00:43:17;13.77;;;3.00;;
24401;SDS011;12539;48.808;11.292;2023-02-02T00:45:43;10.00;;;2.17;;
24401;SDS011;12539;48.808;11.292;2023-02-02T00:48:09;8.35;;;2.20;;
24401;SDS011;12539;48.808;11.292;2023-02-02T00:50:35;10.25;;;2.47;;
24401;SDS011;12539;48.808;11.292;2023-02-02T00:53:01;11.55;;;2.42;;
24401;SDS011;12539;48.808;11.292;2023-02-02T00:55:27;10.18;;;2.72;;
24401;SDS011;12539;48.808;11.292;2023-02-02T00:57:53;9.90;;;3.08;;
24401;SDS011;12539;48.808;11.292;2023-02-02T01:00:20;7.05;;;2.28;;
24401;SDS011;12539;48.808;11.292;2023-02-02T01:02:51;9.30;;;3.03;;
24401;SDS011;12539;48.808;11.292;2023-02-02T01:05:17;8.77;;;2.00;;
24401;SDS011;12539;48.808;11.292;2023-02-02T01:07:44;10.93;;;2.10;;
24401;SDS011;12539;48.808;11.292;2023-02-02T01:10:12;8.65;;;1.90;;
24401;SDS011;12539;48.808;11.292;2023-02-02T01:12:40;7.23;;;1.83;;
24401;SDS011;12539;48.808;11.292;2023-02-02T01:15:06;18.15;;;3.25;;
24401;SDS011;12539;48.808;11.292;2023-02-02T01:17:33;6.03;;;2.65;;
24401;SDS011;12539;48.808;11.292;2023-02-02T01:19:58;7.97;;;1.90;;
24401;SDS011;12539;48.808;11.292;2023-02-02T01:22:24;12.32;;;3.20;;
24401;SDS011;12539;48.808;11.292;2023-02-02T01:24:50;7.80;;;2.08;;
24401;SDS011;12539;48.808;11.292;2023-02-02T01:27:16;8.85;;;3.17;;
24401;SDS011;12539;48.808;11.292;2023-02-02T01:29:42;8.15;;;2.58;;
24401;SDS011;12539;48.808;11.292;2023-02-02T01:32:08;8.95;;;2.10;;
24401;SDS011;12539;48.808;11.292;2023-02-02T01:34:34;8.20;;;2.28;;
24401;SDS011;12539;48.808;11.292;2023-02-02T01:37:01;6.03;;;2.30;;
24401;SDS011;12539;48.808;11.292;2023-02-02T01:39:27;10.55;;;2.88;;
24401;SDS011;12539;48.808;11.292;2023-02-02T01:41:52;9.13;;;2.92;;
24401;SDS011;12539;48.808;11.292;2023-02-02T01:47:22;6.68;;;2.13;;
24401;SDS011;12539;48.808;11.292;2023-02-02T01:49:51;6.38;;;1.85;;
24401;SDS011;12539;48.808;11.292;2023-02-02T01:52:18;10.02;;;1.92;;
24401;SDS011;12539;48.808;11.292;2023-02-02T01:54:48;7.57;;;2.38;;
24401;SDS011;12539;48.808;11.292;2023-02-02T01:57:22;6.68;;;2.35;;
24401;SDS011;12539;48.808;11.292;2023-02-02T01:59:49;11.27;;;2.30;;
24401;SDS011;12539;48.808;11.292;2023-02-02T02:02:18;6.53;;;1.85;;
24401;SDS011;12539;48.808;11.292;2023-02-02T02:04:43;7.35;;;2.03;;
24401;SDS011;12539;48.808;11.292;2023-02-02T02:07:09;7.50;;;2.28;;
24401;SDS011;12539;48.808;11.292;2023-02-02T02:09:36;5.53;;;2.00;;
24401;SDS011;12539;48.808;11.292;2023-02-02T02:12:02;6.57;;;1.77;;
24401;SDS011;12539;48.808;11.292;2023-02-02T02:14:28;8.85;;;1.95;;
24401;SDS011;12539;48.808;11.292;2023-02-02T02:20:14;9.20;;;1.75;;
24401;SDS011;12539;48.808;11.292;2023-02-02T02:23:23;7.20;;;1.73;;
24401;SDS011;12539;48.808;11.292;2023-02-02T02:42:30;5.53;;;2.22;;
24401;SDS011;12539;48.808;11.292;2023-02-02T02:45:00;7.28;;;1.77;;
24401;SDS011;12539;48.808;11.292;2023-02-02T02:47:28;5.78;;;2.13;;
24401;SDS011;12539;48.808;11.292;2023-02-02T02:49:55;11.52;;;2.80;;
24401;SDS011;12539;48.808;11.292;2023-02-02T02:52:22;8.65;;;2.05;;
24401;SDS011;12539;48.808;11.292;2023-02-02T02:54:54;8.23;;;1.70;;
24401;SDS011;12539;48.808;11.292;2023-02-02T02:57:40;4.85;;;1.67;;
24401;SDS011;12539;48.808;11.292;2023-02-02T03:06:20;10.57;;;1.67;;
24401;SDS011;12539;48.808;11.292;2023-02-02T03:11:19;6.30;;;1.45;;
24401;SDS011;12539;48.808;11.292;2023-02-02T03:13:45;4.82;;;1.90;;
24401;SDS011;12539;48.808;11.292;2023-02-02T03:16:11;5.63;;;1.55;;
24401;SDS011;12539;48.808;11.292;2023-02-02T03:18:39;5.70;;;1.73;;
24401;SDS011;12539;48.808;11.292;2023-02-02T03:21:05;7.82;;;2.30;;
24401;SDS011;12539;48.808;11.292;2023-02-02T03:23:31;7.15;;;1.20;;
24401;SDS011;12539;48.808;11.292;2023-02-02T03:25:57;4.82;;;1.27;;
24401;SDS011;12539;48.808;11.292;2023-02-02T03:28:23;7.53;;;1.50;;
24401;SDS011;12539;48.808;11.292;2023-02-02T03:30:49;5.30;;;1.40;;
24401;SDS011;12539;48.808;11.292;2023-02-02T03:33:17;5.85;;;1.90;;
24401;SDS011;12539;48.808;11.292;2023-02-02T03:35:43;6.38;;;1.70;;
24401;SDS011;12539;48.808;11.292;2023-02-02T03:38:09;4.85;;;1.67;;
24401;SDS011;12539;48.808;11.292;2023-02-02T03:40:36;5.85;;;1.42;;
24401;SDS011;12539;48.808;11.292;2023-02-02T03:43:02;5.30;;;1.30;;
24401;SDS011;12539;48.808;11.292;2023-02-02T03:45:30;5.22;;;1.35;;
24401;SDS011;12539;48.808;11.292;2023-02-02T03:47:59;4.80;;;1.70;;
24401;SDS011;12539;48.808;11.292;2023-02-02T03:50:29;4.23;;;1.40;;
24401;SDS011;12539;48.808;11.292;2023-02-02T03:52:54;3.90;;;1.30;;
24401;SDS011;12539;48.808;11.292;2023-02-02T03:55:20;4.80;;;1.25;;
24401;SDS011;12539;48.808;11.292;2023-02-02T03:57:46;5.25;;;1.20;;
24401;SDS011;12539;48.808;11.292;2023-02-02T04:00:11;3.47;;;1.65;;
24401;SDS011;12539;48.808;11.292;2023-02-02T04:02:37;2.92;;;1.13;;
24401;SDS011;12539;48.808;11.292;2023-02-02T04:05:04;5.82;;;1.35;;
24401;SDS011;12539;48.808;11.292;2023-02-02T04:07:30;2.40;;;0.90;;
24401;SDS011;12539;48.808;11.292;2023-02-02T04:09:56;2.08;;;1.20;;
24401;SDS011;12539;48.808;11.292;2023-02-02T04:12:21;5.05;;;1.35;;
24401;SDS011;12539;48.808;11.292;2023-02-02T04:14:47;2.92;;;0.98;;
24401;SDS011;12539;48.808;11.292;2023-02-02T04:17:13;3.70;;;1.00;;
24401;SDS011;12539;48.808;11.292;2023-02-02T04:19:38;1.77;;;0.77;;
24401;SDS011;12539;48.808;11.292;2023-02-02T04:22:04;2.22;;;1.08;;
24401;SDS011;12539;48.808;11.292;2023-02-02T04:24:30;2.85;;;1.20;;
24401;SDS011;12539;48.808;11.292;2023-02-02T04:26:55;3.70;;;1.23;;
24401;SDS011;12539;48.808;11.292;2023-02-02T04:29:21;4.57;;;1.17;;
24401;SDS011;12539;48.808;11.292;2023-02-02T04:31:47;4.13;;;1.33;;
24401;SDS011;12539;48.808;11.292;2023-02-02T04:34:12;3.70;;;1.30;;
24401;SDS011;12539;48.808;11.292;2023-02-02T04:36:38;2.10;;;1.02;;
24401;SDS011;12539;48.808;11.292;2023-02-02T04:39:04;1.98;;;1.17;;
24401;SDS011;12539;48.808;11.292;2023-02-02T04:41:30;2.40;;;1.17;;
24401;SDS011;12539;48.808;11.292;2023-02-02T04:43:55;4.65;;;1.20;;
24401;SDS011;12539;48.808;11.292;2023-02-02T04:46:21;2.45;;;1.42;;
24401;SDS011;12539;48.808;11.292;2023-02-02T04:48:47;3.65;;;1.50;;
24401;SDS011;12539;48.808;11.292;2023-02-02T04:51:14;2.05;;;1.10;;
24401;SDS011;12539;48.808;11.292;2023-02-02T04:53:40;2.72;;;1.17;;
24401;SDS011;12539;48.808;11.292;2023-02-02T04:56:16;3.80;;;1.15;;
24401;SDS011;12539;48.808;11.292;2023-02-02T04:58:42;2.28;;;0.90;;
24401;SDS011;12539;48.808;11.292;2023-02-02T05:01:10;4.40;;;1.15;;
24401;SDS011;12539;48.808;11.292;2023-02-02T05:03:37;1.70;;;1.23;;
24401;SDS011;12539;48.808;11.292;2023-02-02T05:06:03;4.10;;;1.73;;
24401;SDS011;12539;48.808;11.292;2023-02-02T05:08:29;4.47;;;1.20;;
24401;SDS011;12539;48.808;11.292;2023-02-02T05:10:55;1.30;;;0.93;;
24401;SDS011;12539;48.808;11.292;2023-02-02T05:13:21;2.95;;;1.33;;
24401;SDS011;12539;48.808;11.292;2023-02-02T05:15:47;4.55;;;1.10;;
24401;SDS011;12539;48.808;11.292;2023-02-02T05:18:13;2.47;;;1.40;;
24401;SDS011;12539;48.808;11.292;2023-02-02T05:20:38;2.30;;;1.40;;
24401;SDS011;12539;48.808;11.292;2023-02-02T05:23:04;3.30;;;1.35;;
24401;SDS011;12539;48.808;11.292;2023-02-02T05:25:30;4.70;;;1.42;;
24401;SDS011;12539;48.808;11.292;2023-02-02T05:27:55;5.50;;;1.88;;
24401;SDS011;12539;48.808;11.292;2023-02-02T05:30:21;6.07;;;1.60;;
24401;SDS011;12539;48.808;11.292;2023-02-02T05:32:47;2.83;;;1.58;;
24401;SDS011;12539;48.808;11.292;2023-02-02T05:35:12;3.28;;;1.30;;
24401;SDS011;12539;48.808;11.292;2023-02-02T05:37:38;4.72;;;1.73;;
24401;SDS011;12539;48.808;11.292;2023-02-02T05:40:06;7.43;;;1.85;;
24401;SDS011;12539;48.808;11.292;2023-02-02T05:42:32;4.93;;;1.42;;
24401;SDS011;12539;48.808;11.292;2023-02-02T05:44:58;4.20;;;1.90;;
24401;SDS011;12539;48.808;11.292;2023-02-02T05:47:23;21.02;;;6.43;;
24401;SDS011;12539;48.808;11.292;2023-02-02T05:49:49;6.68;;;2.78;;
24401;SDS011;12539;48.808;11.292;2023-02-02T05:52:15;9.35;;;2.70;;
24401;SDS011;12539;48.808;11.292;2023-02-02T05:54:43;8.52;;;3.35;;
24401;SDS011;12539;48.808;11.292;2023-02-02T05:57:09;7.85;;;2.45;;
24401;SDS011;12539;48.808;11.292;2023-02-02T05:59:35;10.27;;;2.75;;
24401;SDS011;12539;48.808;11.292;2023-02-02T06:02:01;9.73;;;2.25;;
24401;SDS011;12539;48.808;11.292;2023-02-02T06:04:29;7.45;;;2.28;;
24401;SDS011;12539;48.808;11.292;2023-02-02T06:06:55;7.78;;;2.22;;
24401;SDS011;12539;48.808;11.292;2023-02-02T06:09:21;8.73;;;2.78;;
24401;SDS011;12539;48.808;11.292;2023-02-02T06:11:48;12.43;;;2.60;;
24401;SDS011;12539;48.808;11.292;2023-02-02T06:14:13;6.47;;;3.03;;
24401;SDS011;12539;48.808;11.292;2023-02-02T06:16:39;5.95;;;2.47;;
24401;SDS011;12539;48.808;11.292;2023-02-02T06:19:05;11.35;;;2.97;;
24401;SDS011;12539;48.808;11.292;2023-02-02T06:21:31;6.80;;;2.28;;
24401;SDS011;12539;48.808;11.292;2023-02-02T06:23:57;6.78;;;2.33;;
24401;SDS011;12539;48.808;11.292;2023-02-02T06:26:23;8.05;;;2.97;;
24401;SDS011;12539;48.808;11.292;2023-02-02T06:28:51;7.07;;;2.50;;
24401;SDS011;12539;48.808;11.292;2023-02-02T06:31:18;5.13;;;2.40;;
24401;SDS011;12539;48.808;11.292;2023-02-02T06:33:44;5.88;;;2.80;;
24401;SDS011;12539;48.808;11.292;2023-02-02T06:36:11;9.20;;;2.63;;
24401;SDS011;12539;48.808;11.292;2023-02-02T06:38:36;6.97;;;3.10;;
24401;SDS011;12539;48.808;11.292;2023-02-02T06:41:02;8.85;;;3.42;;
24401;SDS011;12539;48.808;11.292;2023-02-02T06:43:28;5.72;;;3.60;;
24401;SDS011;12539;48.808;11.292;2023-02-02T06:45:58;7.50;;;3.53;;
24401;SDS011;12539;48.808;11.292;2023-02-02T06:48:24;9.95;;;4.03;;
24401;SDS011;12539;48.808;11.292;2023-02-02T06:50:50;6.18;;;3.05;;
24401;SDS011;12539;48.808;11.292;2023-02-02T06:53:17;7.90;;;3.40;;
24401;SDS011;12539;48.808;11.292;2023-02-02T06:55:56;11.23;;;3.63;;
24401;SDS011;12539;48.808;11.292;2023-02-02T06:58:25;5.70;;;3.03;;
24401;SDS011;12539;48.808;11.292;2023-02-02T07:00:51;9.20;;;3.00;;
24401;SDS011;12539;48.808;11.292;2023-02-02T07:03:17;10.52;;;3.90;;
24401;SDS011;12539;48.808;11.292;2023-02-02T07:05:45;7.80;;;3.38;;
24401;SDS011;12539;48.808;11.292;2023-02-02T07:08:14;8.40;;;3.42;;
24401;SDS011;12539;48.808;11.292;2023-02-02T07:10:40;13.65;;;3.95;;
24401;SDS011;12539;48.808;11.292;2023-02-02T07:13:07;9.73;;;3.72;;
24401;SDS011;12539;48.808;11.292;2023-02-02T07:15:33;6.68;;;3.50;;
24401;SDS011;12539;48.808;11.292;2023-02-02T07:17:59;7.10;;;3.40;;
24401;SDS011;12539;48.808;11.292;2023-02-02T07:20:25;8.05;;;3.25;;
24401;SDS011;12539;48.808;11.292;2023-02-02T07:22:51;8.20;;;3.63;;
24401;SDS011;12539;48.808;11.292;2023-02-02T07:25:17;8.65;;;3.63;;
24401;SDS011;12539;48.808;11.292;2023-02-02T07:27:42;8.75;;;3.83;;
24401;SDS011;12539;48.808;11.292;2023-02-02T07:30:08;9.32;;;3.47;;
24401;SDS011;12539;48.808;11.292;2023-02-02T07:32:34;8.57;;;3.67;;
24401;SDS011;12539;48.808;11.292;2023-02-02T07:35:00;7.63;;;3.90;;
24401;SDS011;12539;48.808;11.292;2023-02-02T07:37:26;5.68;;;2.80;;
24401;SDS011;12539;48.808;11.292;2023-02-02T07:39:51;9.93;;;4.38;;
24401;SDS011;12539;48.808;11.292;2023-02-02T07:42:17;6.43;;;2.90;;
24401;SDS011;12539;48.808;11.292;2023-02-02T07:44:43;9.63;;;3.22;;
24401;SDS011;12539;48.808;11.292;2023-02-02T07:47:08;5.65;;;2.50;;
24401;SDS011;12539;48.808;11.292;2023-02-02T07:49:34;7.93;;;3.00;;
24401;SDS011;12539;48.808;11.292;2023-02-02T07:52:00;5.97;;;3.00;;
24401;SDS011;12539;48.808;11.292;2023-02-02T07:54:25;6.22;;;2.45;;
24401;SDS011;12539;48.808;11.292;2023-02-02T07:56:51;8.48;;;3.10;;
24401;SDS011;12539;48.808;11.292;2023-02-02T07:59:17;5.10;;;2.75;;
24401;SDS011;12539;48.808;11.292;2023-02-02T08:01:42;6.32;;;2.83;;
24401;SDS011;12539;48.808;11.292;2023-02-02T08:04:08;5.43;;;2.55;;
24401;SDS011;12539;48.808;11.292;2023-02-02T08:06:37;6.60;;;2.22;;
24401;SDS011;12539;48.808;11.292;2023-02-02T08:09:04;4.68;;;2.42;;
24401;SDS011;12539;48.808;11.292;2023-02-02T08:11:32;3.88;;;1.98;;
24401;SDS011;12539;48.808;11.292;2023-02-02T08:13:58;7.22;;;2.20;;
24401;SDS011;12539;48.808;11.292;2023-02-02T08:16:25;3.78;;;2.10;;
24401;SDS011;12539;48.808;11.292;2023-02-02T08:18:53;8.27;;;2.28;;
24401;SDS011;12539;48.808;11.292;2023-02-02T08:21:19;6.13;;;1.80;;
24401;SDS011;12539;48.808;11.292;2023-02-02T08:23:45;5.28;;;1.98;;
24401;SDS011;12539;48.808;11.292;2023-02-02T08:26:12;5.88;;;2.17;;
24401;SDS011;12539;48.808;11.292;2023-02-02T08:28:44;3.67;;;2.10;;
24401;SDS011;12539;48.808;11.292;2023-02-02T08:31:13;4.38;;;1.70;;
24401;SDS011;12539;48.808;11.292;2023-02-02T08:33:44;4.30;;;1.70;;
24401;SDS011;12539;48.808;11.292;2023-02-02T08:36:14;5.57;;;1.92;;
24401;SDS011;12539;48.808;11.292;2023-02-02T08:38:41;5.03;;;1.90;;
24401;SDS011;12539;48.808;11.292;2023-02-02T08:41:08;8.10;;;2.30;;
24401;SDS011;12539;48.808;11.292;2023-02-02T08:43:35;7.78;;;2.00;;
24401;SDS011;12539;48.808;11.292;2023-02-02T08:46:01;7.53;;;2.30;;
24401;SDS011;12539;48.808;11.292;2023-02-02T08:48:27;3.92;;;2.13;;
24401;SDS011;12539;48.808;11.292;2023-02-02T08:50:54;6.18;;;1.58;;
24401;SDS011;12539;48.808;11.292;2023-02-02T08:53:21;8.25;;;2.42;;
24401;SDS011;12539;48.808;11.292;2023-02-02T08:55:47;4.25;;;1.92;;
24401;SDS011;12539;48.808;11.292;2023-02-02T08:58:21;5.55;;;2.38;;
24401;SDS011;12539;48.808;11.292;2023-02-02T09:00:46;7.22;;;2.35;;
24401;SDS011;12539;48.808;11.292;2023-02-02T09:03:12;6.60;;;1.92;;
24401;SDS011;12539;48.808;11.292;2023-02-02T09:05:38;9.82;;;2.40;;
24401;SDS011;12539;48.808;11.292;2023-02-02T09:08:03;3.97;;;1.90;;
24401;SDS011;12539;48.808;11.292;2023-02-02T09:10:30;6.82;;;2.22;;
24401;SDS011;12539;48.808;11.292;2023-02-02T09:12:56;6.30;;;1.80;;
24401;SDS011;12539;48.808;11.292;2023-02-02T09:15:21;5.35;;;1.88;;
24401;SDS011;12539;48.808;11.292;2023-02-02T09:17:47;5.63;;;1.77;;
24401;SDS011;12539;48.808;11.292;2023-02-02T09:20:13;3.88;;;1.40;;
24401;SDS011;12539;48.808;11.292;2023-02-02T09:22:38;5.28;;;1.92;;
24401;SDS011;12539;48.808;11.292;2023-02-02T09:25:04;6.20;;;1.83;;
24401;SDS011;12539;48.808;11.292;2023-02-02T09:27:30;3.92;;;1.40;;
24401;SDS011;12539;48.808;11.292;2023-02-02T09:30:01;5.97;;;1.75;;
24401;SDS011;12539;48.808;11.292;2023-02-02T09:32:27;5.38;;;2.15;;
24401;SDS011;12539;48.808;11.292;2023-02-02T09:34:53;4.13;;;1.67;;
24401;SDS011;12539;48.808;11.292;2023-02-02T09:37:18;3.33;;;2.13;;
24401;SDS011;12539;48.808;11.292;2023-02-02T09:39:44;6.18;;;2.15;;
24401;SDS011;12539;48.808;11.292;2023-02-02T09:45:18;5.43;;;2.03;;
24401;SDS011;12539;48.808;11.292;2023-02-02T09:50:44;4.45;;;1.92;;
24401;SDS011;12539;48.808;11.292;2023-02-02T09:53:16;5.32;;;1.67;;
24401;SDS011;12539;48.808;11.292;2023-02-02T09:55:44;4.70;;;1.40;;
24401;SDS011;12539;48.808;11.292;2023-02-02T10:00:45;5.18;;;1.80;;
24401;SDS011;12539;48.808;11.292;2023-02-02T10:03:14;7.20;;;1.90;;
24401;SDS011;12539;48.808;11.292;2023-02-02T10:08:35;3.60;;;1.55;;
24401;SDS011;12539;48.808;11.292;2023-02-02T10:11:19;2.92;;;1.67;;
24401;SDS011;12539;48.808;11.292;2023-02-02T10:13:50;7.28;;;2.10;;
24401;SDS011;12539;48.808;11.292;2023-02-02T10:16:20;6.45;;;1.95;;
24401;SDS011;12539;48.808;11.292;2023-02-02T10:18:49;4.30;;;1.60;;
24401;SDS011;12539;48.808;11.292;2023-02-02T10:23:58;5.57;;;2.45;;
24401;SDS011;12539;48.808;11.292;2023-02-02T10:39:17;5.30;;;1.90;;
24401;SDS011;12539;48.808;11.292;2023-02-02T10:42:36;4.80;;;1.88;;
24401;SDS011;12539;48.808;11.292;2023-02-02T10:44:53;3.78;;;1.80;;
24401;SDS011;12539;48.808;11.292;2023-02-02T10:47:28;6.85;;;1.83;;
24401;SDS011;12539;48.808;11.292;2023-02-02T10:52:31;2.25;;;1.25;;
24401;SDS011;12539;48.808;11.292;2023-02-02T10:55:06;5.28;;;1.90;;
24401;SDS011;12539;48.808;11.292;2023-02-02T11:00:29;6.50;;;2.00;;
24401;SDS011;12539;48.808;11.292;2023-02-02T11:03:12;3.65;;;1.35;;
24401;SDS011;12539;48.808;11.292;2023-02-02T11:05:39;6.30;;;2.00;;
24401;SDS011;12539;48.808;11.292;2023-02-02T11:08:27;3.75;;;1.40;;
24401;SDS011;12539;48.808;11.292;2023-02-02T11:10:57;5.28;;;1.88;;
24401;SDS011;12539;48.808;11.292;2023-02-02T11:13:34;4.65;;;1.60;;
24401;SDS011;12539;48.808;11.292;2023-02-02T11:18:39;4.38;;;1.70;;
24401;SDS011;12539;48.808;11.292;2023-02-02T11:21:25;3.83;;;1.70;;
24401;SDS011;12539;48.808;11.292;2023-02-02T11:24:00;3.85;;;1.50;;
24401;SDS011;12539;48.808;11.292;2023-02-02T11:26:40;3.70;;;1.52;;
24401;SDS011;12539;48.808;11.292;2023-02-02T11:29:13;4.45;;;1.63;;
24401;SDS011;12539;48.808;11.292;2023-02-02T11:31:42;5.28;;;2.00;;
24401;SDS011;12539;48.808;11.292;2023-02-02T11:34:13;6.38;;;1.55;;
24401;SDS011;12539;48.808;11.292;2023-02-02T11:39:22;3.80;;;1.90;;
24401;SDS011;12539;48.808;11.292;2023-02-02T11:41:48;3.63;;;2.35;;
24401;SDS011;12539;48.808;11.292;2023-02-02T11:44:24;6.25;;;2.13;;
24401;SDS011;12539;48.808;11.292;2023-02-02T11:46:51;5.45;;;2.47;;
24401;SDS011;12539;48.808;11.292;2023-02-02T11:49:18;5.63;;;2.38;;
24401;SDS011;12539;48.808;11.292;2023-02-02T11:51:56;6.03;;;2.05;;
24401;SDS011;12539;48.808;11.292;2023-02-02T11:54:27;8.48;;;2.70;;
24401;SDS011;12539;48.808;11.292;2023-02-02T11:56:58;6.60;;;2.08;;
24401;SDS011;12539;48.808;11.292;2023-02-02T11:59:26;7.97;;;3.42;;
24401;SDS011;12539;48.808;11.292;2023-02-02T12:04:50;5.88;;;2.83;;
24401;SDS011;12539;48.808;11.292;2023-02-02T12:07:18;4.95;;;2.40;;
24401;SDS011;12539;48.808;11.292;2023-02-02T12:09:56;9.15;;;2.78;;
24401;SDS011;12539;48.808;11.292;2023-02-02T12:17:44;8.90;;;3.55;;
24401;SDS011;12539;48.808;11.292;2023-02-02T12:20:29;7.53;;;2.97;;
24401;SDS011;12539;48.808;11.292;2023-02-02T12:29:00;7.90;;;2.50;;
24401;SDS011;12539;48.808;11.292;2023-02-02T12:34:31;6.07;;;2.63;;
24401;SDS011;12539;48.808;11.292;2023-02-02T12:48:17;6.60;;;2.30;;
24401;SDS011;12539;48.808;11.292;2023-02-02T13:01:55;7.63;;;2.05;;
24401;SDS011;12539;48.808;11.292;2023-02-02T13:09:28;5.53;;;2.00;;
24401;SDS011;12539;48.808;11.292;2023-02-02T13:12:01;5.85;;;2.13;;
24401;SDS011;12539;48.808;11.292;2023-02-02T13:14:30;6.90;;;2.83;;
24401;SDS011;12539;48.808;11.292;2023-02-02T13:17:17;5.63;;;3.08;;
24401;SDS011;12539;48.808;11.292;2023-02-02T13:19:54;6.43;;;2.75;;
24401;SDS011;12539;48.808;11.292;2023-02-02T13:24:51;2.53;;;1.60;;
24401;SDS011;12539;48.808;11.292;2023-02-02T13:27:21;5.22;;;1.92;;
24401;SDS011;12539;48.808;11.292;2023-02-02T13:29:56;2.85;;;1.35;;
24401;SDS011;12539;48.808;11.292;2023-02-02T13:32:38;3.28;;;1.40;;
24401;SDS011;12539;48.808;11.292;2023-02-02T13:35:14;5.60;;;1.85;;
24401;SDS011;12539;48.808;11.292;2023-02-02T13:38:01;3.15;;;1.30;;
24401;SDS011;12539;48.808;11.292;2023-02-02T13:40:37;3.60;;;1.52;;
24401;SDS011;12539;48.808;11.292;2023-02-02T13:45:46;1.75;;;1.17;;
24401;SDS011;12539;48.808;11.292;2023-02-02T13:48:21;3.47;;;1.20;;
24401;SDS011;12539;48.808;11.292;2023-02-02T14:02:02;6.28;;;1.50;;
24401;SDS011;12539;48.808;11.292;2023-02-02T14:04:31;3.83;;;1.13;;
24401;SDS011;12539;48.808;11.292;2023-02-02T14:06:58;3.55;;;1.35;;
24401;SDS011;12539;48.808;11.292;2023-02-02T14:09:30;4.78;;;2.05;;
24401;SDS011;12539;48.808;11.292;2023-02-02T14:11:58;3.92;;;1.20;;
24401;SDS011;12539;48.808;11.292;2023-02-02T14:14:27;3.20;;;0.93;;
24401;SDS011;12539;48.808;11.292;2023-02-02T14:19:47;4.10;;;1.63;;
24401;SDS011;12539;48.808;11.292;2023-02-02T14:24:48;6.40;;;2.58;;
24401;SDS011;12539;48.808;11.292;2023-02-02T14:45:29;5.43;;;3.80;;
24401;SDS011;12539;48.808;11.292;2023-02-02T14:47:59;3.60;;;1.63;;
24401;SDS011;12539;48.808;11.292;2023-02-02T14:55:48;14.32;;;7.97;;
24401;SDS011;12539;48.808;11.292;2023-02-02T14:58:25;1.75;;;1.25;;
24401;SDS011;12539;48.808;11.292;2023-02-02T15:01:12;2.65;;;1.30;;
24401;SDS011;12539;48.808;11.292;2023-02-02T15:09:39;1.83;;;1.08;;
24401;SDS011;12539;48.808;11.292;2023-02-02T15:14:48;3.92;;;2.10;;
24401;SDS011;12539;48.808;11.292;2023-02-02T15:17:19;3.38;;;1.55;;
24401;SDS011;12539;48.808;11.292;2023-02-02T15:28:16;4.03;;;1.70;;
24401;SDS011;12539;48.808;11.292;2023-02-02T15:33:39;5.63;;;2.25;;
24401;SDS011;12539;48.808;11.292;2023-02-02T15:36:12;3.60;;;1.73;;
24401;SDS011;12539;48.808;11.292;2023-02-02T15:38:42;3.65;;;1.88;;
24401;SDS011;12539;48.808;11.292;2023-02-02T15:44:00;4.53;;;2.42;;
24401;SDS011;12539;48.808;11.292;2023-02-02T15:46:27;6.07;;;2.70;;
24401;SDS011;12539;48.808;11.292;2023-02-02T15:51:50;4.97;;;2.90;;
24401;SDS011;12539;48.808;11.292;2023-02-02T15:54:26;5.80;;;2.67;;
24401;SDS011;12539;48.808;11.292;2023-02-02T15:56:53;7.57;;;3.13;;
24401;SDS011;12539;48.808;11.292;2023-02-02T15:59:28;5.80;;;2.83;;
24401;SDS011;12539;48.808;11.292;2023-02-02T16:04:35;7.60;;;3.65;;
24401;SDS011;12539;48.808;11.292;2023-02-02T16:07:03;9.05;;;3.80;;
24401;SDS011;12539;48.808;11.292;2023-02-02T16:09:33;11.00;;;3.73;;
24401;SDS011;12539;48.808;11.292;2023-02-02T16:12:01;7.20;;;3.53;;
24401;SDS011;12539;48.808;11.292;2023-02-02T16:14:29;10.70;;;4.68;;
24401;SDS011;12539;48.808;11.292;2023-02-02T16:17:08;12.45;;;4.03;;
24401;SDS011;12539;48.808;11.292;2023-02-02T16:19:38;9.88;;;3.83;;
24401;SDS011;12539;48.808;11.292;2023-02-02T16:22:08;6.40;;;3.20;;
24401;SDS011;12539;48.808;11.292;2023-02-02T16:27:26;8.23;;;3.72;;
24401;SDS011;12539;48.808;11.292;2023-02-02T16:29:55;9.95;;;3.67;;
24401;SDS011;12539;48.808;11.292;2023-02-02T16:32:32;9.13;;;4.38;;
24401;SDS011;12539;48.808;11.292;2023-02-02T16:35:03;8.48;;;4.13;;
24401;SDS011;12539;48.808;11.292;2023-02-02T16:37:34;9.20;;;4.50;;
24401;SDS011;12539;48.808;11.292;2023-02-02T16:46:00;7.68;;;4.60;;
24401;SDS011;12539;48.808;11.292;2023-02-02T16:48:37;10.02;;;4.90;;
24401;SDS011;12539;48.808;11.292;2023-02-02T16:51:08;8.00;;;4.30;;
24401;SDS011;12539;48.808;11.292;2023-02-02T16:53:39;7.78;;;4.40;;
24401;SDS011;12539;48.808;11.292;2023-02-02T16:56:08;11.27;;;4.97;;
24401;SDS011;12539;48.808;11.292;2023-02-02T16:58:37;10.05;;;4.50;;
24401;SDS011;12539;48.808;11.292;2023-02-02T17:01:09;11.68;;;4.68;;
24401;SDS011;12539;48.808;11.292;2023-02-02T17:03:57;8.68;;;3.80;;
24401;SDS011;12539;48.808;11.292;2023-02-02T17:06:29;7.35;;;3.85;;
24401;SDS011;12539;48.808;11.292;2023-02-02T17:08:56;11.80;;;5.75;;
24401;SDS011;12539;48.808;11.292;2023-02-02T17:11:53;10.00;;;5.43;;
24401;SDS011;12539;48.808;11.292;2023-02-02T17:14:23;6.55;;;4.53;;
24401;SDS011;12539;48.808;11.292;2023-02-02T17:16:55;10.40;;;4.18;;
24401;SDS011;12539;48.808;11.292;2023-02-02T17:19:20;8.15;;;6.18;;
24401;SDS011;12539;48.808;11.292;2023-02-02T17:21:46;11.30;;;4.97;;
24401;SDS011;12539;48.808;11.292;2023-02-02T17:24:13;7.47;;;4.75;;
24401;SDS011;12539;48.808;11.292;2023-02-02T17:26:40;11.63;;;5.90;;
24401;SDS011;12539;48.808;11.292;2023-02-02T17:29:07;11.05;;;4.68;;
24401;SDS011;12539;48.808;11.292;2023-02-02T17:31:36;16.02;;;6.65;;
24401;SDS011;12539;48.808;11.292;2023-02-02T17:34:04;13.98;;;5.47;;
24401;SDS011;12539;48.808;11.292;2023-02-02T17:36:35;8.60;;;4.35;;
24401;SDS011;12539;48.808;11.292;2023-02-02T17:39:01;8.18;;;5.15;;
24401;SDS011;12539;48.808;11.292;2023-02-02T17:41:27;11.27;;;4.80;;
24401;SDS011;12539;48.808;11.292;2023-02-02T17:43:52;9.23;;;5.20;;
24401;SDS011;12539;48.808;11.292;2023-02-02T17:46:18;10.40;;;4.68;;
24401;SDS011;12539;48.808;11.292;2023-02-02T17:48:44;8.57;;;4.43;;
24401;SDS011;12539;48.808;11.292;2023-02-02T17:51:15;7.50;;;4.53;;
24401;SDS011;12539;48.808;11.292;2023-02-02T17:53:42;6.95;;;4.40;;
24401;SDS011;12539;48.808;11.292;2023-02-02T17:56:08;7.60;;;3.38;;
24401;SDS011;12539;48.808;11.292;2023-02-02T17:58:34;23.95;;;11.75;;
24401;SDS011;12539;48.808;11.292;2023-02-02T18:00:59;14.20;;;7.05;;